Time;durP1;ratioP1;P1;durP2;ratioP2;P2;SDS_P1;SDS_P2;PMS_P1;PMS_P2;Temp;Humidity;BMP_temperature;BMP_pressure;BME280_temperature;BME280_humidity;BME280_pressure;Samples;Min_cycle;Max_cycle;Signal;HPM_P1;HPM_P2
2023/11/02 00:02:27;;;;;;;4.20;1.27;;;;;;;;;;5069334;28;20457;-80
2023/11/02 00:04:55;;;;;;;5.17;2.13;;;;;;;;;;5067337;28;20468;-78
2023/11/02 00:07:23;;;;;;;4.67;1.50;;;;;;;;;;5073516;28;20477;-79
2023/11/02 00:09:53;;;;;;;4.67;1.50;;;;;;;;;;5070048;28;20488;-80
2023/11/02 00:12:21;;;;;;;3.60;1.50;;;;;;;;;;5069918;28;20449;-80
2023/11/02 00:14:52;;;;;;;2.83;1.30;;;;;;;;;;5072521;28;20966;-79
2023/11/02 00:17:38;;;;;;;3.00;1.87;;;;;;;;;;5069555;28;20764;-79
2023/11/02 00:20:08;;;;;;;5.20;1.40;;;;;;;;;;5069233;28;20479;-79
2023/11/02 00:22:38;;;;;;;5.23;1.20;;;;;;;;;;5071525;28;20485;-78
2023/11/02 00:25:07;;;;;;;4.63;1.50;;;;;;;;;;5070444;28;20734;-79
2023/11/02 00:27:34;;;;;;;6.60;1.50;;;;;;;;;;5069473;28;20504;-79
2023/11/02 00:30:07;;;;;;;4.37;1.13;;;;;;;;;;5068887;28;20445;-81
2023/11/02 00:32:35;;;;;;;10.13;1.43;;;;;;;;;;5070032;28;20453;-79
2023/11/02 00:35:03;;;;;;;2.90;1.30;;;;;;;;;;5065849;28;20491;-80
2023/11/02 00:37:30;;;;;;;3.77;1.10;;;;;;;;;;5070098;28;20450;-80
2023/11/02 00:40:05;;;;;;;3.70;1.20;;;;;;;;;;5066935;28;20461;-80
2023/11/02 00:42:32;;;;;;;3.80;1.53;;;;;;;;;;5066443;28;20546;-81
2023/11/02 00:45:00;;;;;;;5.40;1.73;;;;;;;;;;5070832;28;20520;-80
2023/11/02 00:47:29;;;;;;;5.00;1.40;;;;;;;;;;5067935;28;20507;-80
2023/11/02 00:49:59;;;;;;;6.97;1.60;;;;;;;;;;5070247;28;20462;-80
2023/11/02 00:52:27;;;;;;;8.67;1.43;;;;;;;;;;5070791;28;20453;-80
2023/11/02 00:54:55;;;;;;;3.53;1.40;;;;;;;;;;5070733;28;20500;-80
2023/11/02 00:57:23;;;;;;;4.53;1.40;;;;;;;;;;5071456;28;20441;-79
2023/11/02 00:59:51;;;;;;;4.97;1.53;;;;;;;;;;5071813;28;20453;-79
2023/11/02 01:02:19;;;;;;;4.83;1.50;;;;;;;;;;5066275;28;20568;-81
2023/11/02 01:04:55;;;;;;;4.73;1.57;;;;;;;;;;5066538;28;20481;-80
2023/11/02 01:07:23;;;;;;;3.80;1.50;;;;;;;;;;5067836;28;20496;-79
2023/11/02 01:09:59;;;;;;;3.50;1.70;;;;;;;;;;5066716;28;20461;-81
2023/11/02 01:12:31;;;;;;;7.77;2.20;;;;;;;;;;5066911;28;20465;-80
2023/11/02 01:15:00;;;;;;;4.60;1.70;;;;;;;;;;5065729;28;20449;-80
2023/11/02 01:17:31;;;;;;;10.03;1.43;;;;;;;;;;5066897;28;20503;-81
2023/11/02 01:20:08;;;;;;;4.80;1.30;;;;;;;;;;5069069;28;20532;-79
2023/11/02 01:22:52;;;;;;;4.57;1.40;;;;;;;;;;5069519;28;20488;-80
2023/11/02 01:25:20;;;;;;;4.30;1.83;;;;;;;;;;5068434;28;20468;-80
2023/11/02 01:27:47;;;;;;;6.07;3.17;;;;;;;;;;5070252;28;20478;-79
2023/11/02 01:30:34;;;;;;;10.70;1.53;;;;;;;;;;5070059;28;20813;-79
2023/11/02 01:33:02;;;;;;;4.93;1.57;;;;;;;;;;5068697;28;20472;-81
2023/11/02 01:35:39;;;;;;;4.80;1.23;;;;;;;;;;5067132;28;20465;-80
2023/11/02 01:38:08;;;;;;;4.03;1.17;;;;;;;;;;5071046;28;20453;-79
2023/11/02 01:40:37;;;;;;;4.03;1.40;;;;;;;;;;5067719;28;20454;-82
2023/11/02 01:43:05;;;;;;;4.33;1.00;;;;;;;;;;5068730;28;20491;-79
2023/11/02 01:45:35;;;;;;;3.73;1.40;;;;;;;;;;5069013;28;20445;-80
2023/11/02 01:48:06;;;;;;;4.03;1.33;;;;;;;;;;5073223;28;20485;-79
2023/11/02 01:50:35;;;;;;;4.73;1.00;;;;;;;;;;5067738;28;20457;-80
2023/11/02 01:53:21;;;;;;;3.40;1.80;;;;;;;;;;5070094;28;20538;-81
2023/11/02 01:55:57;;;;;;;4.30;1.20;;;;;;;;;;5069335;28;20449;-80
2023/11/02 01:58:28;;;;;;;5.00;1.30;;;;;;;;;;5072023;28;20464;-81
2023/11/02 02:00:59;;;;;;;4.20;1.60;;;;;;;;;;5071282;28;20456;-81
2023/11/02 02:03:28;;;;;;;4.37;1.40;;;;;;;;;;5071224;28;20515;-80
2023/11/02 02:05:58;;;;;;;3.67;1.43;;;;;;;;;;5071561;28;20453;-79
2023/11/02 02:08:28;;;;;;;9.90;1.20;;;;;;;;;;5069311;28;20497;-80
2023/11/02 02:11:02;;;;;;;4.90;1.67;;;;;;;;;;5071013;28;20488;-79
2023/11/02 02:13:33;;;;;;;3.47;1.30;;;;;;;;;;5070213;28;20471;-79
2023/11/02 02:16:08;;;;;;;4.03;1.73;;;;;;;;;;5069781;28;20533;-80
2023/11/02 02:18:39;;;;;;;7.43;1.60;;;;;;;;;;5069371;28;20476;-80
2023/11/02 02:21:09;;;;;;;2.80;1.23;;;;;;;;;;5065592;28;20473;-80
2023/11/02 02:23:39;;;;;;;4.20;1.23;;;;;;;;;;5069295;28;20441;-78
2023/11/02 02:26:19;;;;;;;7.70;2.83;;;;;;;;;;5066831;28;20449;-80
2023/11/02 02:28:58;;;;;;;5.60;1.40;;;;;;;;;;5066154;28;20481;-79
2023/11/02 02:31:34;;;;;;;2.53;1.20;;;;;;;;;;5064660;28;20460;-80
2023/11/02 02:34:17;;;;;;;6.10;1.33;;;;;;;;;;5067853;28;20452;-80
2023/11/02 02:36:58;;;;;;;5.10;1.23;;;;;;;;;;5065951;28;20563;-80
2023/11/02 02:39:27;;;;;;;5.43;1.43;;;;;;;;;;5065281;28;20453;-80
2023/11/02 02:42:00;;;;;;;4.73;1.30;;;;;;;;;;5067224;28;20461;-79
2023/11/02 02:44:28;;;;;;;4.57;1.77;;;;;;;;;;5068538;28;20463;-81
2023/11/02 02:47:02;;;;;;;3.70;1.20;;;;;;;;;;5069006;28;20457;-79
2023/11/02 02:49:32;;;;;;;4.13;1.30;;;;;;;;;;5065077;28;20451;-80
2023/11/02 02:52:02;;;;;;;2.60;1.03;;;;;;;;;;5065997;28;20461;-81
2023/11/02 02:54:30;;;;;;;4.87;1.20;;;;;;;;;;5067112;28;20492;-79
2023/11/02 02:56:58;;;;;;;4.50;1.73;;;;;;;;;;5072945;28;20492;-81
2023/11/02 02:59:26;;;;;;;5.90;1.63;;;;;;;;;;5071569;28;20468;-81
2023/11/02 03:01:56;;;;;;;3.53;1.13;;;;;;;;;;5072450;28;20457;-79
2023/11/02 03:04:25;;;;;;;4.30;1.10;;;;;;;;;;5071916;28;20445;-81
2023/11/02 03:06:57;;;;;;;3.23;1.10;;;;;;;;;;5067154;28;20461;-81
2023/11/02 03:09:28;;;;;;;3.30;1.00;;;;;;;;;;5067795;28;20552;-79
2023/11/02 03:11:59;;;;;;;6.63;1.67;;;;;;;;;;5066717;28;20477;-79
2023/11/02 03:14:27;;;;;;;6.43;1.10;;;;;;;;;;5070798;28;20456;-81
2023/11/02 03:16:57;;;;;;;7.60;2.33;;;;;;;;;;5070627;28;20437;-81
2023/11/02 03:19:41;;;;;;;3.10;1.17;;;;;;;;;;5068576;28;20465;-79
2023/11/02 03:22:10;;;;;;;4.37;1.57;;;;;;;;;;5070893;28;20472;-80
2023/11/02 03:24:43;;;;;;;2.97;1.20;;;;;;;;;;5069465;28;20680;-80
2023/11/02 03:27:12;;;;;;;5.13;1.90;;;;;;;;;;5068234;28;20458;-80
2023/11/02 03:29:43;;;;;;;3.77;1.33;;;;;;;;;;5068796;28;20510;-81
2023/11/02 03:32:18;;;;;;;2.77;1.17;;;;;;;;;;5071026;28;20796;-79
2023/11/02 03:34:50;;;;;;;4.10;1.30;;;;;;;;;;5072359;28;20475;-81
2023/11/02 03:37:24;;;;;;;6.87;1.70;;;;;;;;;;5069638;28;20460;-81
2023/11/02 03:39:59;;;;;;;6.10;1.27;;;;;;;;;;5069313;28;20514;-81
2023/11/02 03:42:30;;;;;;;2.43;1.00;;;;;;;;;;5073454;28;20472;-81
2023/11/02 03:45:01;;;;;;;3.80;1.00;;;;;;;;;;5071337;28;20465;-80
2023/11/02 03:47:35;;;;;;;3.63;1.07;;;;;;;;;;5074308;28;20472;-80
2023/11/02 03:50:14;;;;;;;4.13;1.10;;;;;;;;;;5069326;28;20468;-80
2023/11/02 03:52:46;;;;;;;4.90;1.00;;;;;;;;;;5073909;28;20439;-80
2023/11/02 03:55:23;;;;;;;6.80;1.30;;;;;;;;;;5072802;28;20449;-81
2023/11/02 03:57:54;;;;;;;2.40;0.90;;;;;;;;;;5071987;28;20457;-81
2023/11/02 04:00:22;;;;;;;4.27;1.37;;;;;;;;;;5069781;28;20955;-80
2023/11/02 04:02:51;;;;;;;3.50;1.40;;;;;;;;;;5069147;28;20449;-81
2023/11/02 04:05:21;;;;;;;3.90;1.10;;;;;;;;;;5065689;28;20467;-80
2023/11/02 04:07:59;;;;;;;3.70;1.10;;;;;;;;;;5065846;28;20477;-80
2023/11/02 04:10:29;;;;;;;5.40;1.50;;;;;;;;;;5064034;28;20445;-80
2023/11/02 04:13:06;;;;;;;4.50;1.13;;;;;;;;;;5065797;28;20449;-79
2023/11/02 04:15:33;;;;;;;2.83;1.07;;;;;;;;;;5069549;28;20476;-81
2023/11/02 04:18:04;;;;;;;9.17;1.10;;;;;;;;;;5071225;28;20459;-81
2023/11/02 04:20:31;;;;;;;4.40;1.00;;;;;;;;;;5070269;28;20461;-80
2023/11/02 04:22:59;;;;;;;5.00;1.40;;;;;;;;;;5069487;28;20477;-80
2023/11/02 04:25:28;;;;;;;8.33;1.83;;;;;;;;;;5072426;28;20495;-79
2023/11/02 04:27:56;;;;;;;2.83;1.20;;;;;;;;;;5066990;28;20523;-80
2023/11/02 04:30:24;;;;;;;2.90;1.50;;;;;;;;;;5066917;28;20451;-80
2023/11/02 04:32:51;;;;;;;6.73;1.53;;;;;;;;;;5067904;28;20469;-80
2023/11/02 04:35:19;;;;;;;8.03;1.33;;;;;;;;;;5069073;28;20468;-80
2023/11/02 04:37:46;;;;;;;7.07;1.80;;;;;;;;;;5069313;28;20884;-79
2023/11/02 04:40:14;;;;;;;3.13;1.33;;;;;;;;;;5068612;28;20442;-79
2023/11/02 04:42:43;;;;;;;5.47;1.27;;;;;;;;;;5071615;28;20468;-80
2023/11/02 04:45:11;;;;;;;4.83;1.33;;;;;;;;;;5070733;28;20457;-80
2023/11/02 04:47:38;;;;;;;5.03;1.33;;;;;;;;;;5070023;28;20461;-80
2023/11/02 04:50:09;;;;;;;5.47;1.30;;;;;;;;;;5069683;28;20453;-79
2023/11/02 04:52:37;;;;;;;3.03;1.20;;;;;;;;;;5066019;28;20481;-79
2023/11/02 04:55:05;;;;;;;4.67;1.47;;;;;;;;;;5067496;28;20457;-81
2023/11/02 04:57:34;;;;;;;5.77;1.50;;;;;;;;;;5065883;28;20771;-79
2023/11/02 05:00:08;;;;;;;5.67;1.03;;;;;;;;;;5066826;28;20454;-80
2023/11/02 05:02:35;;;;;;;2.30;0.90;;;;;;;;;;5066091;28;20850;-79
2023/11/02 05:05:04;;;;;;;2.83;0.90;;;;;;;;;;5067501;28;20437;-80
2023/11/02 05:07:31;;;;;;;4.73;1.13;;;;;;;;;;5067779;28;20461;-80
2023/11/02 05:09:59;;;;;;;2.93;1.00;;;;;;;;;;5070360;28;20485;-79
2023/11/02 05:12:26;;;;;;;2.50;0.90;;;;;;;;;;5067662;28;20449;-80
2023/11/02 05:14:53;;;;;;;3.93;1.27;;;;;;;;;;5069479;28;20454;-81
2023/11/02 05:17:22;;;;;;;3.70;1.10;;;;;;;;;;5068742;28;20520;-81
2023/11/02 05:19:50;;;;;;;3.57;1.20;;;;;;;;;;5066885;28;20477;-80
2023/11/02 05:22:17;;;;;;;2.10;0.80;;;;;;;;;;5067017;28;20461;-81
2023/11/02 05:24:45;;;;;;;3.30;1.10;;;;;;;;;;5066346;28;20480;-79
2023/11/02 05:27:12;;;;;;;3.70;0.87;;;;;;;;;;5069810;28;20457;-79
2023/11/02 05:29:40;;;;;;;3.03;1.10;;;;;;;;;;5069388;28;20487;-81
2023/11/02 05:32:08;;;;;;;2.80;1.00;;;;;;;;;;5066707;28;20450;-80
2023/11/02 05:34:37;;;;;;;4.80;1.17;;;;;;;;;;5068089;28;20461;-80
2023/11/02 05:37:05;;;;;;;3.27;1.47;;;;;;;;;;5065368;28;20462;-80
2023/11/02 05:39:33;;;;;;;3.00;1.10;;;;;;;;;;5066698;28;20527;-81
2023/11/02 05:42:00;;;;;;;2.53;0.90;;;;;;;;;;5070105;28;20524;-81
2023/11/02 05:44:28;;;;;;;4.33;1.50;;;;;;;;;;5067638;28;20449;-79
2023/11/02 05:46:58;;;;;;;5.80;1.20;;;;;;;;;;5067034;28;20450;-80
2023/11/02 05:49:26;;;;;;;4.23;1.00;;;;;;;;;;5065409;28;20489;-78
2023/11/02 05:51:55;;;;;;;3.77;1.30;;;;;;;;;;5065853;28;20468;-80
2023/11/02 05:54:23;;;;;;;3.20;1.43;;;;;;;;;;5065122;28;20763;-79
2023/11/02 05:56:50;;;;;;;3.83;2.00;;;;;;;;;;5069830;28;20572;-81
2023/11/02 05:59:18;;;;;;;2.50;0.83;;;;;;;;;;5065326;28;20515;-80
2023/11/02 06:01:45;;;;;;;10.80;1.47;;;;;;;;;;5062620;28;20453;-80
2023/11/02 06:04:13;;;;;;;4.20;1.07;;;;;;;;;;5060567;28;20831;-79
2023/11/02 06:06:40;;;;;;;5.03;1.30;;;;;;;;;;5061249;28;20457;-79
2023/11/02 06:09:09;;;;;;;3.80;1.53;;;;;;;;;;5064563;28;20489;-80
2023/11/02 06:11:38;;;;;;;3.70;1.53;;;;;;;;;;5063460;28;20509;-80
2023/11/02 06:14:05;;;;;;;7.03;1.20;;;;;;;;;;5058714;28;20485;-80
2023/11/02 06:16:33;;;;;;;4.03;1.30;;;;;;;;;;5056752;28;20442;-79
2023/11/02 06:19:01;;;;;;;4.27;1.10;;;;;;;;;;5058193;28;20684;-80
2023/11/02 06:21:29;;;;;;;3.70;1.17;;;;;;;;;;5051061;28;20481;-79
2023/11/02 06:23:56;;;;;;;3.10;0.87;;;;;;;;;;5055703;28;20565;-78
2023/11/02 06:26:25;;;;;;;3.90;2.33;;;;;;;;;;5053553;28;20494;-80
2023/11/02 06:28:53;;;;;;;4.60;1.53;;;;;;;;;;5061217;28;20481;-81
2023/11/02 06:31:20;;;;;;;4.43;1.40;;;;;;;;;;5060990;28;21042;-79
2023/11/02 06:33:50;;;;;;;4.07;1.57;;;;;;;;;;5057892;28;20461;-79
2023/11/02 06:36:17;;;;;;;6.90;1.60;;;;;;;;;;5058870;28;20519;-80
2023/11/02 06:38:45;;;;;;;6.50;1.57;;;;;;;;;;5055219;28;20445;-79
2023/11/02 06:41:14;;;;;;;5.90;1.87;;;;;;;;;;5051641;28;20460;-80
2023/11/02 06:43:44;;;;;;;3.47;1.20;;;;;;;;;;5053701;28;20454;-81
2023/11/02 06:46:12;;;;;;;4.07;1.10;;;;;;;;;;5055580;28;20456;-81
2023/11/02 06:48:42;;;;;;;6.67;1.27;;;;;;;;;;5060307;28;20531;-80
2023/11/02 06:51:10;;;;;;;4.40;1.57;;;;;;;;;;5059283;28;20561;-81
2023/11/02 06:53:37;;;;;;;3.03;1.40;;;;;;;;;;5054755;28;20445;-80
2023/11/02 06:56:05;;;;;;;5.87;1.37;;;;;;;;;;5055013;28;20495;-79
2023/11/02 06:58:33;;;;;;;5.00;0.90;;;;;;;;;;5054928;28;20894;-78
2023/11/02 07:01:02;;;;;;;5.17;1.00;;;;;;;;;;5056088;28;20541;-79
2023/11/02 07:03:30;;;;;;;7.80;1.37;;;;;;;;;;5055839;28;20457;-79
2023/11/02 07:05:57;;;;;;;2.43;0.97;;;;;;;;;;5055332;28;20457;-79
2023/11/02 07:08:25;;;;;;;2.73;1.20;;;;;;;;;;5061176;28;20441;-79
2023/11/02 07:10:53;;;;;;;4.07;1.10;;;;;;;;;;5056652;28;20465;-79
2023/11/02 07:13:23;;;;;;;5.57;1.63;;;;;;;;;;5053328;28;20464;-79
2023/11/02 07:15:51;;;;;;;6.20;1.60;;;;;;;;;;5051512;28;20532;-80
2023/11/02 07:18:21;;;;;;;2.87;1.10;;;;;;;;;;5055516;28;20473;-80
2023/11/02 07:20:49;;;;;;;3.37;1.30;;;;;;;;;;5058289;28;20525;-79
2023/11/02 07:23:17;;;;;;;3.47;1.40;;;;;;;;;;5065007;28;20851;-79
2023/11/02 07:25:46;;;;;;;4.40;1.17;;;;;;;;;;5063001;28;20468;-80
2023/11/02 07:28:16;;;;;;;5.20;1.17;;;;;;;;;;5067230;28;20571;-78
2023/11/02 07:30:44;;;;;;;2.97;0.90;;;;;;;;;;5079978;28;20480;-80
2023/11/02 07:33:12;;;;;;;2.57;1.00;;;;;;;;;;5079219;28;20459;-79
2023/11/02 07:35:41;;;;;;;2.57;0.80;;;;;;;;;;5078198;28;20476;-80
2023/11/02 07:38:09;;;;;;;7.23;1.33;;;;;;;;;;5077115;28;20483;-79
2023/11/02 07:40:36;;;;;;;4.80;0.90;;;;;;;;;;5078774;28;20448;-80
2023/11/02 07:43:05;;;;;;;3.83;1.60;;;;;;;;;;5078266;28;20452;-79
2023/11/02 07:45:32;;;;;;;4.00;1.00;;;;;;;;;;5078249;28;20449;-79
2023/11/02 07:48:02;;;;;;;3.00;0.90;;;;;;;;;;5066738;28;20556;-81
2023/11/02 07:50:30;;;;;;;2.70;1.00;;;;;;;;;;5057301;28;21301;-79
2023/11/02 07:52:59;;;;;;;3.13;0.93;;;;;;;;;;5061945;28;20464;-79
2023/11/02 07:55:27;;;;;;;5.20;0.80;;;;;;;;;;5075815;28;20511;-80
2023/11/02 07:57:56;;;;;;;3.63;0.87;;;;;;;;;;5082756;28;20476;-77
2023/11/02 08:00:24;;;;;;;3.90;1.40;;;;;;;;;;5062464;28;20488;-78
2023/11/02 08:02:52;;;;;;;2.20;0.80;;;;;;;;;;5057745;28;20453;-79
2023/11/02 08:05:20;;;;;;;9.50;1.00;;;;;;;;;;5073396;28;20445;-79
2023/11/02 08:07:48;;;;;;;2.30;0.83;;;;;;;;;;5073253;28;20476;-77
2023/11/02 08:10:19;;;;;;;3.20;0.97;;;;;;;;;;5069276;28;20496;-80
2023/11/02 08:12:46;;;;;;;2.93;0.90;;;;;;;;;;5079531;28;20457;-78
2023/11/02 08:15:15;;;;;;;3.87;0.90;;;;;;;;;;5069519;28;20465;-78
2023/11/02 08:17:44;;;;;;;5.60;1.20;;;;;;;;;;5068701;28;20455;-78
2023/11/02 08:20:14;;;;;;;2.83;0.80;;;;;;;;;;5079627;28;20432;-79
2023/11/02 08:22:41;;;;;;;3.53;1.60;;;;;;;;;;5066919;28;20500;-77
2023/11/02 08:25:10;;;;;;;3.50;1.07;;;;;;;;;;5079249;28;20551;-79
2023/11/02 08:27:39;;;;;;;5.63;1.50;;;;;;;;;;5084856;28;20860;-79
2023/11/02 08:30:07;;;;;;;3.57;1.30;;;;;;;;;;5087000;28;20514;-79
2023/11/02 08:32:35;;;;;;;5.10;1.00;;;;;;;;;;5082853;28;20504;-78
2023/11/02 08:35:03;;;;;;;3.97;1.90;;;;;;;;;;5066506;28;20441;-79
2023/11/02 08:37:30;;;;;;;3.20;1.23;;;;;;;;;;5085398;28;20547;-79
2023/11/02 08:39:59;;;;;;;3.60;1.00;;;;;;;;;;5084513;28;20448;-78
2023/11/02 08:42:28;;;;;;;2.60;1.00;;;;;;;;;;5080324;28;20480;-79
2023/11/02 08:44:57;;;;;;;4.90;1.60;;;;;;;;;;5083823;28;20444;-78
2023/11/02 08:47:26;;;;;;;4.23;1.53;;;;;;;;;;5085469;28;20478;-78
2023/11/02 08:49:58;;;;;;;16.23;2.23;;;;;;;;;;5082796;28;20476;-78
2023/11/02 08:52:27;;;;;;;2.90;0.90;;;;;;;;;;5081948;28;20540;-77
2023/11/02 08:54:55;;;;;;;2.53;1.03;;;;;;;;;;5083044;28;20465;-79
2023/11/02 08:57:23;;;;;;;4.97;1.13;;;;;;;;;;5082410;28;20448;-79
2023/11/02 08:59:50;;;;;;;3.60;0.80;;;;;;;;;;5083912;28;20460;-80
2023/11/02 09:02:19;;;;;;;3.50;1.00;;;;;;;;;;5079149;28;20915;-79
2023/11/02 09:04:48;;;;;;;3.90;1.00;;;;;;;;;;5079056;28;20453;-78
2023/11/02 09:07:16;;;;;;;2.73;0.80;;;;;;;;;;5073464;28;20532;-78
2023/11/02 09:09:44;;;;;;;2.97;1.47;;;;;;;;;;5071872;28;20534;-78
2023/11/02 09:12:12;;;;;;;2.43;1.00;;;;;;;;;;5075825;28;20619;-79
2023/11/02 09:14:40;;;;;;;2.80;0.70;;;;;;;;;;5064588;28;21041;-79
2023/11/02 09:17:08;;;;;;;2.70;0.80;;;;;;;;;;5063597;28;20442;-78
2023/11/02 09:19:37;;;;;;;2.10;0.90;;;;;;;;;;5063847;28;20521;-78
2023/11/02 09:22:04;;;;;;;3.40;1.70;;;;;;;;;;5064177;28;20544;-79
2023/11/02 09:24:32;;;;;;;4.30;1.30;;;;;;;;;;5064635;28;20523;-79
2023/11/02 09:27:05;;;;;;;2.40;0.87;;;;;;;;;;5085204;28;20463;-81
2023/11/02 09:29:33;;;;;;;4.67;1.00;;;;;;;;;;5087357;28;20494;-79
2023/11/02 09:32:01;;;;;;;4.03;1.00;;;;;;;;;;5091108;28;20484;-80
2023/11/02 09:34:34;;;;;;;5.70;1.30;;;;;;;;;;5093209;28;20561;-80
2023/11/02 09:37:03;;;;;;;4.87;1.00;;;;;;;;;;5093154;28;20463;-79
2023/11/02 09:39:31;;;;;;;3.17;1.30;;;;;;;;;;5097689;28;20452;-79
2023/11/02 09:41:59;;;;;;;3.57;1.20;;;;;;;;;;5103495;28;20483;-80
2023/11/02 09:44:27;;;;;;;6.20;1.40;;;;;;;;;;5100245;28;20515;-80
2023/11/02 09:46:56;;;;;;;4.07;1.07;;;;;;;;;;5101277;28;20920;-79
2023/11/02 09:49:23;;;;;;;5.93;2.80;;;;;;;;;;5105760;28;20447;-79
2023/11/02 09:51:51;;;;;;;4.83;1.10;;;;;;;;;;5105677;28;20443;-80
2023/11/02 09:54:20;;;;;;;4.53;1.13;;;;;;;;;;5106315;28;20447;-80
2023/11/02 09:56:48;;;;;;;1.90;1.00;;;;;;;;;;5102797;28;20487;-79
2023/11/02 09:59:16;;;;;;;2.40;1.07;;;;;;;;;;5085173;28;20449;-80
2023/11/02 10:01:44;;;;;;;2.73;0.90;;;;;;;;;;5081815;28;20491;-77
2023/11/02 10:04:11;;;;;;;4.63;1.17;;;;;;;;;;5082801;28;20554;-79
2023/11/02 10:06:39;;;;;;;2.20;0.83;;;;;;;;;;5088741;28;20459;-82
2023/11/02 10:09:07;;;;;;;2.40;1.13;;;;;;;;;;5105555;28;20460;-80
2023/11/02 10:11:37;;;;;;;6.43;1.20;;;;;;;;;;5103100;28;20479;-80
2023/11/02 10:14:05;;;;;;;7.17;1.33;;;;;;;;;;5104214;28;20450;-80
2023/11/02 10:16:33;;;;;;;4.80;1.00;;;;;;;;;;5104809;28;20452;-79
2023/11/02 10:19:02;;;;;;;6.20;1.50;;;;;;;;;;5103303;28;20483;-81
2023/11/02 10:21:33;;;;;;;2.57;0.90;;;;;;;;;;5103358;28;20488;-81
2023/11/02 10:24:02;;;;;;;2.60;1.17;;;;;;;;;;5103979;28;20455;-81
2023/11/02 10:26:34;;;;;;;3.53;1.63;;;;;;;;;;5104651;28;20444;-80
2023/11/02 10:29:04;;;;;;;4.57;1.40;;;;;;;;;;5099385;28;20471;-80
2023/11/02 10:31:33;;;;;;;2.23;0.80;;;;;;;;;;5099931;28;20538;-79
2023/11/02 10:34:02;;;;;;;6.40;2.10;;;;;;;;;;5101803;28;20712;-79
2023/11/02 10:36:32;;;;;;;2.70;0.87;;;;;;;;;;5103803;28;20530;-82
2023/11/02 10:39:02;;;;;;;4.77;0.80;;;;;;;;;;5100672;28;20918;-80
2023/11/02 10:41:30;;;;;;;3.30;1.10;;;;;;;;;;5105350;28;20452;-80
2023/11/02 10:43:58;;;;;;;3.13;1.10;;;;;;;;;;5100990;28;20455;-79
2023/11/02 10:46:32;;;;;;;2.13;0.80;;;;;;;;;;5090462;28;20461;-79
2023/11/02 10:49:03;;;;;;;5.30;1.00;;;;;;;;;;5098014;28;20467;-80
2023/11/02 10:51:31;;;;;;;4.10;1.53;;;;;;;;;;5095821;28;20497;-81
2023/11/02 10:54:07;;;;;;;6.90;1.90;;;;;;;;;;5087284;28;20464;-79
2023/11/02 10:56:41;;;;;;;8.83;2.43;;;;;;;;;;5095860;28;20914;-78
2023/11/02 10:59:15;;;;;;;5.70;1.30;;;;;;;;;;5089560;28;20536;-79
2023/11/02 11:01:45;;;;;;;4.50;1.37;;;;;;;;;;5101266;28;20452;-79
2023/11/02 11:04:13;;;;;;;2.27;0.80;;;;;;;;;;5104710;28;20466;-79
2023/11/02 11:06:42;;;;;;;7.70;2.07;;;;;;;;;;5100781;28;20653;-80
2023/11/02 11:09:12;;;;;;;5.70;1.87;;;;;;;;;;5096230;28;20526;-79
2023/11/02 11:11:40;;;;;;;4.30;1.60;;;;;;;;;;5096285;28;20464;-78
2023/11/02 11:14:09;;;;;;;4.53;1.50;;;;;;;;;;5098662;28;20465;-80
2023/11/02 11:16:50;;;;;;;5.23;2.03;;;;;;;;;;5101662;28;20466;-80
2023/11/02 11:19:19;;;;;;;7.30;1.00;;;;;;;;;;5104405;28;20467;-81
2023/11/02 11:21:51;;;;;;;3.13;1.60;;;;;;;;;;5105498;28;20501;-81
2023/11/02 11:24:21;;;;;;;4.03;1.10;;;;;;;;;;5105110;28;20456;-80
2023/11/02 11:26:50;;;;;;;2.77;0.90;;;;;;;;;;5091143;28;20524;-81
2023/11/02 11:29:36;;;;;;;7.40;1.90;;;;;;;;;;5085913;28;20441;-81
2023/11/02 11:32:07;;;;;;;4.03;1.43;;;;;;;;;;5082751;28;20470;-80
2023/11/02 11:34:57;;;;;;;7.67;3.43;;;;;;;;;;5073896;28;20449;-79
2023/11/02 11:37:40;;;;;;;8.43;2.27;;;;;;;;;;5078970;28;20448;-81
2023/11/02 11:40:10;;;;;;;5.10;3.10;;;;;;;;;;5080132;28;21069;-80
2023/11/02 11:42:56;;;;;;;5.87;1.97;;;;;;;;;;5093396;28;20513;-80
2023/11/02 11:45:27;;;;;;;4.70;1.80;;;;;;;;;;5097099;28;20538;-78
2023/11/02 11:48:01;;;;;;;8.90;3.10;;;;;;;;;;5089888;28;20872;-79
2023/11/02 11:50:36;;;;;;;3.07;1.37;;;;;;;;;;5077495;28;20487;-79
2023/11/02 11:53:19;;;;;;;9.63;3.80;;;;;;;;;;5079371;28;20459;-80
2023/11/02 11:55:47;;;;;;;7.03;2.57;;;;;;;;;;5082196;28;20486;-81
2023/11/02 11:58:19;;;;;;;8.67;2.43;;;;;;;;;;5085605;28;20472;-79
2023/11/02 12:01:05;;;;;;;4.60;1.80;;;;;;;;;;5092186;28;20457;-80
2023/11/02 12:03:49;;;;;;;3.00;1.60;;;;;;;;;;5094815;28;20474;-80
2023/11/02 12:06:19;;;;;;;4.43;1.53;;;;;;;;;;5097026;28;20543;-81
2023/11/02 12:08:54;;;;;;;3.93;1.77;;;;;;;;;;5094907;28;20452;-78
2023/11/02 12:11:24;;;;;;;9.60;3.70;;;;;;;;;;5096422;28;20502;-81
2023/11/02 12:14:00;;;;;;;6.53;2.83;;;;;;;;;;5090581;28;20448;-80
2023/11/02 12:16:35;;;;;;;6.07;3.43;;;;;;;;;;5098685;28;20498;-80
2023/11/02 12:19:25;;;;;;;4.60;2.03;;;;;;;;;;5103413;28;20459;-80
2023/11/02 12:22:13;;;;;;;6.53;1.97;;;;;;;;;;5086337;28;20553;-79
2023/11/02 12:24:42;;;;;;;3.00;1.30;;;;;;;;;;5079953;28;20470;-81
2023/11/02 12:27:11;;;;;;;10.73;2.27;;;;;;;;;;5079761;28;20476;-81
2023/11/02 12:29:39;;;;;;;8.30;4.37;;;;;;;;;;5081987;28;20452;-80
2023/11/02 12:32:09;;;;;;;5.67;2.57;;;;;;;;;;5082617;28;20528;-81
2023/11/02 12:34:38;;;;;;;4.50;2.47;;;;;;;;;;5080992;28;21001;-79
2023/11/02 12:37:07;;;;;;;4.03;1.80;;;;;;;;;;5081075;28;20475;-80
2023/11/02 12:39:38;;;;;;;2.20;1.00;;;;;;;;;;5090358;28;20620;-80
2023/11/02 12:42:09;;;;;;;4.90;1.17;;;;;;;;;;5093133;28;20447;-82
2023/11/02 12:44:46;;;;;;;5.67;3.30;;;;;;;;;;5095572;28;20456;-80
2023/11/02 12:47:15;;;;;;;4.00;1.60;;;;;;;;;;5102396;28;20451;-80
2023/11/02 12:49:44;;;;;;;5.40;1.90;;;;;;;;;;5102175;28;20447;-80
2023/11/02 12:52:14;;;;;;;3.43;1.70;;;;;;;;;;5101616;28;20965;-78
2023/11/02 12:54:58;;;;;;;3.97;2.00;;;;;;;;;;5102016;28;20459;-80
2023/11/02 12:57:27;;;;;;;9.77;2.90;;;;;;;;;;5105587;28;20456;-79
2023/11/02 12:59:55;;;;;;;5.07;2.37;;;;;;;;;;5103886;28;20550;-80
2023/11/02 13:02:26;;;;;;;9.27;2.47;;;;;;;;;;5099844;28;20444;-80
2023/11/02 13:05:06;;;;;;;6.90;2.53;;;;;;;;;;5092762;28;20460;-81
2023/11/02 13:07:43;;;;;;;2.37;1.10;;;;;;;;;;5091108;28;20854;-79
2023/11/02 13:10:21;;;;;;;5.23;2.53;;;;;;;;;;5102242;28;20944;-80
2023/11/02 13:12:51;;;;;;;5.30;1.97;;;;;;;;;;5093036;28;20499;-79
2023/11/02 13:15:19;;;;;;;2.67;1.33;;;;;;;;;;5104213;28;20456;-79
2023/11/02 13:17:46;;;;;;;4.90;1.57;;;;;;;;;;5105646;28;20520;-80
2023/11/02 13:20:18;;;;;;;5.53;1.87;;;;;;;;;;5104328;28;20444;-79
2023/11/02 13:22:47;;;;;;;4.73;2.30;;;;;;;;;;5105408;28;20472;-79
2023/11/02 13:25:15;;;;;;;11.20;5.30;;;;;;;;;;5103057;28;20456;-79
2023/11/02 13:27:44;;;;;;;3.67;1.60;;;;;;;;;;5105513;28;20447;-81
2023/11/02 13:30:22;;;;;;;3.43;1.70;;;;;;;;;;5101669;28;21095;-79
2023/11/02 13:32:51;;;;;;;5.47;1.50;;;;;;;;;;5101859;28;20520;-81
2023/11/02 13:35:21;;;;;;;5.57;1.93;;;;;;;;;;5086897;28;20475;-79
2023/11/02 13:37:49;;;;;;;6.63;2.47;;;;;;;;;;5099440;28;20459;-79
2023/11/02 13:40:26;;;;;;;7.00;2.40;;;;;;;;;;5085052;28;20445;-80
2023/11/02 13:42:53;;;;;;;2.10;0.90;;;;;;;;;;5084525;28;20891;-81
2023/11/02 13:45:22;;;;;;;3.23;1.20;;;;;;;;;;5099417;28;20630;-81
2023/11/02 13:47:50;;;;;;;4.50;1.83;;;;;;;;;;5086787;28;20468;-80
2023/11/02 13:50:24;;;;;;;4.57;1.47;;;;;;;;;;5089168;28;20477;-80
2023/11/02 13:52:51;;;;;;;4.87;3.00;;;;;;;;;;5083881;28;20445;-79
2023/11/02 13:55:20;;;;;;;4.00;1.33;;;;;;;;;;5091048;28;20791;-79
2023/11/02 13:57:48;;;;;;;5.10;1.30;;;;;;;;;;5092464;28;20463;-80
2023/11/02 14:00:20;;;;;;;19.13;6.97;;;;;;;;;;5086410;28;20527;-81
2023/11/02 14:02:49;;;;;;;5.73;1.70;;;;;;;;;;5097679;28;20448;-80
2023/11/02 14:05:17;;;;;;;4.00;1.40;;;;;;;;;;5100976;28;20480;-79
2023/11/02 14:07:45;;;;;;;3.00;1.00;;;;;;;;;;5083746;28;20456;-78
2023/11/02 14:10:16;;;;;;;3.27;2.20;;;;;;;;;;5099075;28;20778;-80
2023/11/02 14:12:46;;;;;;;10.80;3.50;;;;;;;;;;5098477;28;20493;-80
2023/11/02 14:15:20;;;;;;;6.67;2.00;;;;;;;;;;5094652;28;20488;-81
2023/11/02 14:20:44;;;;;;;8.00;4.50;;;;;;;;;;5093194;28;20545;-79
2023/11/02 14:23:16;;;;;;;6.67;3.80;;;;;;;;;;5092531;28;20473;-79
2023/11/02 14:25:45;;;;;;;3.50;1.70;;;;;;;;;;5105071;28;20479;-79
2023/11/02 14:28:17;;;;;;;3.50;1.17;;;;;;;;;;5099296;28;20459;-80
2023/11/02 14:30:46;;;;;;;7.00;1.83;;;;;;;;;;5094970;28;20558;-80
2023/11/02 14:33:17;;;;;;;4.47;1.60;;;;;;;;;;5094149;28;20536;-80
2023/11/02 14:35:47;;;;;;;8.43;1.30;;;;;;;;;;5089016;28;20460;-80
2023/11/02 14:46:06;;;;;;;3.43;1.20;;;;;;;;;;5198442;22;20292;-82
2023/11/02 14:48:41;;;;;;;7.00;1.27;;;;;;;;;;5099930;28;20460;-81
2023/11/02 14:51:15;;;;;;;7.60;1.70;;;;;;;;;;5103190;28;20503;-80
2023/11/02 14:53:47;;;;;;;5.37;1.57;;;;;;;;;;5096545;28;20544;-79
2023/11/02 14:56:18;;;;;;;9.17;1.90;;;;;;;;;;5097275;28;20531;-79
2023/11/02 14:58:49;;;;;;;10.20;3.50;;;;;;;;;;5094327;28;21145;-78
2023/11/02 15:01:22;;;;;;;3.90;1.60;;;;;;;;;;5084790;28;20478;-79
2023/11/02 15:03:53;;;;;;;4.70;2.30;;;;;;;;;;5088371;28;20543;-79
2023/11/02 15:06:23;;;;;;;4.70;1.80;;;;;;;;;;5101694;28;20466;-79
2023/11/02 15:08:56;;;;;;;15.37;3.70;;;;;;;;;;5102881;28;20527;-78
2023/11/02 15:11:26;;;;;;;3.03;1.00;;;;;;;;;;5093484;28;20529;-79
2023/11/02 15:13:54;;;;;;;7.80;2.47;;;;;;;;;;5100198;28;20495;-79